Leon — D5BH4 — position and weather

sailwx.info

Track history (hours):
 
Tides and Currents Weather Stations Pressure Air Temp Water Temp Dewpoint Dewpoint Depression Visibility Wind Speed Wind Dir Waves Ship Positions

Leon

Last reported at 2015-Jul-31 22:23 UTC. Time now 2015-Aug-01 01:28 UTC.
Position N 51°53' E 004°18'.

Length 95 m; draft 4.8 m.

Type: Ship (hazmat cat C). MMSI: 636015519.

Date/timePositionNaut miles runAvg speedWind from/ knotsBaromVisibWave heightAir tempDewpointWater temp
2015-Jul-31 22:23N 51°53' E 004°18'0 0.0
2015-Jul-31 21:29N 51°53' E 004°18'0 0.0
2015-Jul-31 17:24N 51°53' E 004°18'2 3.0
2015-Jul-31 16:33N 51°55' E 004°15'10 9.6
2015-Jul-31 15:33N 51°59' E 004°02'10 9.5
2015-Jul-31 14:32N 52°04' E 003°48'37 8.8
2015-Jul-31 10:17N 52°41' E 003°55'5910.0
2015-Jul-31 04:24N 53°31' E 004°46'9 9.1
2015-Jul-31 03:27N 53°34' E 004°60'910.1
2015-Jul-31 02:34N 53°37' E 005°14'1110.9
2015-Jul-31 01:34N 53°41' E 005°31'1110.9
2015-Jul-31 00:34N 53°45' E 005°49'53 8.5
2015-Jul-30 18:17N 53°59' E 007°16'4 4.9
2015-Jul-30 17:34N 53°60' E 007°22'8 7.6
2015-Jul-30 16:33N 54°01' E 007°35'8 8.0
2015-Jul-30 15:33N 54°03' E 007°48'6 6.0
2015-Jul-30 14:33N 54°07' E 007°40'7 6.5
2015-Jul-30 13:33N 54°11' E 007°31'6 5.8
2015-Jul-30 12:33N 54°16' E 007°26'4 3.8
2015-Jul-30 11:33N 54°13' E 007°31'4 3.5
2015-Jul-30 10:33N 54°11' E 007°36'3 3.0
2015-Jul-30 09:33N 54°10' E 007°41'3 2.5
2015-Jul-30 08:32N 54°09' E 007°45'2 2.2
2015-Jul-30 07:32N 54°08' E 007°48'2 2.0
2015-Jul-30 06:28N 54°07' E 007°52'1 1.5
2015-Jul-30 05:31N 54°07' E 007°54'2 2.4
2015-Jul-30 04:33N 54°06' E 007°58'3 3.0
2015-Jul-30 03:34N 54°04' E 008°02'3 3.0
2015-Jul-30 02:33N 54°03' E 008°07'2 1.8
2015-Jul-30 01:31N 54°03' E 008°10'0 0.2
2015-Jul-30 00:28N 54°03' E 008°09'0 0.1
2015-Jul-29 23:31N 54°03' E 008°09'0 0.2
2015-Jul-29 22:31N 54°03' E 008°09'0 0.2
2015-Jul-29 21:31N 54°03' E 008°09'0 0.2
2015-Jul-29 20:28N 54°03' E 008°08'0 0.4
2015-Jul-29 19:28N 54°03' E 008°08'1 0.7
2015-Jul-29 18:31N 54°02' E 008°08'1 0.7
2015-Jul-29 17:31N 54°02' E 008°09'1 0.4
2015-Jul-29 16:13N 54°02' E 008°08'0 0.1
2015-Jul-29 15:22N 54°02' E 008°08'0 0.0
2015-Jul-29 14:31N 54°02' E 008°08'0 0.0
2015-Jul-29 13:25N 54°02' E 008°08'0 0.0
2015-Jul-29 12:28N 54°02' E 008°08'0 0.0
2015-Jul-29 11:25N 54°02' E 008°08'0 0.0
2015-Jul-29 10:25N 54°02' E 008°08'0 0.0
2015-Jul-29 09:07N 54°02' E 008°08'0 0.0
2015-Jul-29 08:25N 54°02' E 008°08'0 0.0
2015-Jul-29 07:25N 54°02' E 008°08'0 0.0
2015-Jul-29 06:25N 54°02' E 008°08'0 0.0
2015-Jul-29 05:31N 54°02' E 008°08'0 0.0
2015-Jul-29 04:31N 54°02' E 008°08'0 0.0
2015-Jul-29 03:31N 54°02' E 008°08'0 0.0
2015-Jul-29 02:31N 54°02' E 008°08'0 0.0
2015-Jul-29 01:19N 54°02' E 008°08'0 0.0
2015-Jul-29 00:31N 54°02' E 008°08'0 0.0
2015-Jul-28 23:31N 54°02' E 008°08'0 0.0
2015-Jul-28 22:22N 54°02' E 008°08'0 0.0
2015-Jul-28 21:28N 54°02' E 008°08'0 0.0
2015-Jul-28 20:22N 54°02' E 008°08'0 0.6
2015-Jul-28 19:33N 54°02' E 008°09'0 0.0
2015-Jul-28 18:33N 54°02' E 008°09'0 0.3
2015-Jul-28 17:33N 54°02' E 008°09'0 0.1
2015-Jul-28 16:33N 54°02' E 008°09'0 0.0
2015-Jul-28 15:33N 54°02' E 008°08'0 0.1
2015-Jul-28 14:34N 54°02' E 008°08'0 0.3
2015-Jul-28 13:28N 54°02' E 008°09'0 0.0
2015-Jul-28 12:25N 54°02' E 008°09'0 0.0
2015-Jul-28 11:28N 54°02' E 008°09'0 0.0
2015-Jul-28 10:28N 54°02' E 008°09'0 0.0
2015-Jul-28 09:31N 54°02' E 008°09'0 0.0
2015-Jul-28 08:25N 54°02' E 008°09'0 0.0
2015-Jul-28 07:25N 54°02' E 008°09'0 0.0
2015-Jul-28 06:28N 54°02' E 008°09'0 0.0
2015-Jul-28 05:31N 54°02' E 008°09'0 0.0
2015-Jul-28 04:28N 54°02' E 008°09'0 0.0
2015-Jul-28 03:31N 54°02' E 008°09'0 0.0
2015-Jul-28 02:31N 54°02' E 008°09'0 0.0
2015-Jul-28 01:25N 54°02' E 008°09'0 0.0
2015-Jul-28 00:31N 54°02' E 008°09'0 0.0
2015-Jul-27 23:28N 54°02' E 008°09'0 0.0
2015-Jul-27 22:31N 54°02' E 008°09'0 0.0
2015-Jul-27 21:31N 54°02' E 008°09'0 0.0
2015-Jul-27 20:31N 54°02' E 008°09'0 0.0
2015-Jul-27 19:25N 54°02' E 008°09'0 0.0
2015-Jul-27 18:31N 54°02' E 008°09'0 0.0
2015-Jul-27 17:31N 54°02' E 008°09'0 0.0
2015-Jul-27 16:31N 54°02' E 008°09'0 0.0
2015-Jul-27 15:31N 54°02' E 008°09'0 0.0
2015-Jul-27 14:28N 54°02' E 008°09'0 0.1
2015-Jul-27 13:31N 54°02' E 008°09'0 0.0
2015-Jul-27 12:22N 54°02' E 008°09'0 0.0
2015-Jul-27 11:31N 54°02' E 008°09'0 0.0
2015-Jul-27 10:31N 54°02' E 008°09'0 0.0
2015-Jul-27 09:31N 54°02' E 008°09'0 0.0
2015-Jul-27 08:31N 54°02' E 008°09'0 0.0
2015-Jul-27 07:31N 54°02' E 008°09'0 0.0
2015-Jul-27 06:31N 54°02' E 008°09'0 0.0
2015-Jul-27 05:28N 54°02' E 008°09'0 0.0
2015-Jul-27 04:31N 54°02' E 008°09'0 0.0
2015-Jul-27 03:31N 54°02' E 008°09'0 0.0
2015-Jul-27 02:28N 54°02' E 008°09'0 0.0
2015-Jul-27 01:31N 54°02' E 008°09'0 0.0
2015-Jul-27 00:31N 54°02' E 008°09'0 0.0
2015-Jul-26 23:31N 54°02' E 008°09'0 0.0
2015-Jul-26 22:28N 54°02' E 008°09'0 0.0
2015-Jul-26 21:28N 54°02' E 008°09'0 0.0
2015-Jul-26 20:28N 54°02' E 008°09'0 0.1
2015-Jul-26 19:31N 54°02' E 008°09'0 0.1
2015-Jul-26 18:31N 54°02' E 008°09'0 0.1
2015-Jul-26 17:22N 54°02' E 008°09'0 0.0
2015-Jul-26 16:25N 54°02' E 008°09'0 0.0
2015-Jul-26 15:25N 54°02' E 008°09'0 0.0
2015-Jul-26 14:31N 54°02' E 008°09'0 0.0
2015-Jul-26 13:28N 54°02' E 008°09'0 0.0
2015-Jul-26 12:31N 54°02' E 008°09'0 0.0
2015-Jul-26 11:22N 54°02' E 008°09'0 0.0
2015-Jul-26 10:28N 54°02' E 008°09'0 0.1
2015-Jul-26 09:19N 54°02' E 008°09'0 0.0
2015-Jul-26 08:17N 54°02' E 008°09'0 0.0
2015-Jul-26 07:19N 54°02' E 008°09'0 0.0
2015-Jul-26 06:19N 54°02' E 008°09'0 0.0
2015-Jul-26 05:31N 54°02' E 008°09'0 0.0
2015-Jul-26 04:31N 54°02' E 008°09'0 0.0
2015-Jul-26 03:31N 54°02' E 008°09'0 0.0
2015-Jul-26 02:31N 54°02' E 008°09'0 0.0
2015-Jul-26 01:22N 54°02' E 008°09'0 0.0
2015-Jul-26 00:28N 54°02' E 008°09'0 0.0
2015-Jul-25 23:31N 54°02' E 008°09'0 0.0
2015-Jul-25 22:31N 54°02' E 008°09'0 0.0
2015-Jul-25 21:31N 54°02' E 008°09'0 0.0
2015-Jul-25 20:31N 54°02' E 008°09'0 0.0
2015-Jul-25 19:31N 54°02' E 008°09'0 0.0
2015-Jul-25 18:31N 54°02' E 008°09'0 0.1
2015-Jul-25 17:19N 54°02' E 008°09'0 0.0
2015-Jul-25 16:25N 54°02' E 008°09'0 0.0
2015-Jul-25 15:25N 54°02' E 008°09'0 0.1
2015-Jul-25 14:28N 54°02' E 008°09'0 0.0
2015-Jul-25 13:28N 54°02' E 008°09'0 0.0
2015-Jul-25 12:31N 54°02' E 008°09'0 0.1
2015-Jul-25 11:28N 54°02' E 008°08'0 0.0
2015-Jul-25 10:28N 54°02' E 008°08'0 0.0
2015-Jul-25 09:31N 54°02' E 008°08'0 0.0
2015-Jul-25 08:31N 54°02' E 008°08'0 0.0
2015-Jul-25 07:28N 54°02' E 008°08'0 0.0
2015-Jul-25 06:25N 54°02' E 008°08'0 0.0
2015-Jul-25 05:28N 54°02' E 008°08'0 0.0
2015-Jul-25 04:31N 54°02' E 008°08'0 0.0
2015-Jul-25 03:31N 54°02' E 008°08'0 0.1
2015-Jul-25 02:31N 54°02' E 008°09'0 0.0
2015-Jul-25 01:31N 54°02' E 008°09'0 0.0
2015-Jul-25 00:31N 54°02' E 008°09'0 0.0
2015-Jul-24 23:31N 54°02' E 008°09'0 0.0
2015-Jul-24 22:31N 54°02' E 008°09'0 0.0
2015-Jul-24 21:31N 54°02' E 008°09'0 0.0
2015-Jul-24 20:19N 54°02' E 008°09'0 0.0
2015-Jul-24 19:28N 54°02' E 008°09'0 0.0
2015-Jul-24 18:28N 54°02' E 008°09'0 0.0
2015-Jul-24 17:31N 54°02' E 008°09'0 0.0
2015-Jul-24 16:31N 54°02' E 008°09'0 0.0
2015-Jul-24 15:19N 54°02' E 008°09'0 0.1
2015-Jul-24 14:19N 54°02' E 008°09'0 0.0
2015-Jul-24 13:31N 54°02' E 008°09'0 0.1
2015-Jul-24 12:31N 54°02' E 008°09'0 0.1
2015-Jul-24 11:17N 54°02' E 008°09'0 0.0
2015-Jul-24 10:28N 54°02' E 008°09'0 0.0
2015-Jul-24 09:31N 54°02' E 008°09'0 0.0
2015-Jul-24 08:31N 54°02' E 008°09'0 0.0
2015-Jul-24 07:31N 54°02' E 008°09'0 0.0
2015-Jul-24 06:31N 54°02' E 008°09'0 0.1
2015-Jul-24 05:31N 54°02' E 008°09'0 0.0
2015-Jul-24 04:28N 54°02' E 008°09'0 0.0
2015-Jul-24 03:31N 54°02' E 008°09'0 0.0
2015-Jul-24 02:31N 54°02' E 008°09'0 0.0
2015-Jul-24 01:28N 54°02' E 008°09'0 0.0
2015-Jul-24 00:28N 54°02' E 008°09'0 0.0
2015-Jul-23 23:31N 54°02' E 008°09'0 0.1
2015-Jul-23 22:31N 54°02' E 008°09'0 0.0
2015-Jul-23 21:31N 54°02' E 008°09'0 0.0
2015-Jul-23 20:28N 54°02' E 008°09'0 0.0
2015-Jul-23 19:28N 54°02' E 008°09'0 0.0
2015-Jul-23 18:31N 54°02' E 008°09'0 0.1
2015-Jul-23 17:31N 54°02' E 008°09'0 0.0
2015-Jul-23 16:31N 54°02' E 008°09'0 0.0
2015-Jul-23 15:25N 54°02' E 008°09'0 0.0
2015-Jul-23 14:31N 54°02' E 008°09'0 0.0
2015-Jul-23 13:31N 54°02' E 008°09'0 0.0
2015-Jul-23 12:28N 54°02' E 008°09'0 0.0
2015-Jul-23 11:25N 54°02' E 008°09'0 0.0
2015-Jul-23 10:31N 54°02' E 008°09'0 0.1
2015-Jul-23 09:28N 54°02' E 008°09'0 0.0
2015-Jul-23 08:19N 54°02' E 008°09'0 0.0
2015-Jul-23 07:19N 54°02' E 008°09'0 0.0
2015-Jul-23 06:31N 54°02' E 008°09'0 0.1
2015-Jul-23 05:31N 54°02' E 008°09'0 0.1
2015-Jul-23 04:28N 54°02' E 008°09'0 0.0
2015-Jul-23 03:28N 54°02' E 008°09'0 0.0
2015-Jul-23 02:31N 54°02' E 008°09'0 0.0
2015-Jul-23 01:31N 54°02' E 008°09'0 0.0
2015-Jul-23 00:31N 54°02' E 008°09'0 0.0
2015-Jul-22 23:31N 54°02' E 008°09'0 0.0
2015-Jul-22 22:25N 54°02' E 008°09'0 0.0
2015-Jul-22 21:31N 54°02' E 008°09'0 0.1
2015-Jul-22 20:28N 54°02' E 008°09'0 0.0
2015-Jul-22 19:28N 54°02' E 008°09'0 0.0
2015-Jul-22 18:31N 54°02' E 008°09'0 0.1
2015-Jul-22 17:28N 54°02' E 008°09'0 0.0
2015-Jul-22 16:31N 54°02' E 008°09'0 0.0
2015-Jul-22 15:22N 54°02' E 008°09'0 0.0
2015-Jul-22 14:31N 54°02' E 008°09'0 0.0
2015-Jul-22 13:31N 54°02' E 008°09'0 0.0
2015-Jul-22 12:22N 54°02' E 008°09'0 0.0
2015-Jul-22 11:28N 54°02' E 008°09'0 0.0
2015-Jul-22 10:13N 54°02' E 008°09'0 0.0
2015-Jul-22 09:31N 54°02' E 008°09'0 0.1
2015-Jul-22 08:31N 54°02' E 008°09'0 0.0
2015-Jul-22 07:25N 54°02' E 008°09'0 0.0
2015-Jul-22 06:31N 54°02' E 008°09'0 0.0
2015-Jul-22 05:31N 54°02' E 008°09'0 0.1
2015-Jul-22 04:31N 54°02' E 008°09'0 0.0
2015-Jul-22 03:31N 54°02' E 008°09'0 0.0
2015-Jul-22 02:31N 54°02' E 008°09'0 0.0
2015-Jul-22 01:31N 54°02' E 008°09'0 0.0
2015-Jul-22 00:31N 54°02' E 008°09'0 0.0
2015-Jul-21 23:31N 54°02' E 008°09'0 0.0
2015-Jul-21 22:28N 54°02' E 008°09'  
Track history (hours):
 
Tides and Currents Weather Stations Pressure Air Temp Water Temp Dewpoint Dewpoint Depression Visibility Wind Speed Wind Dir Waves Ship Positions

Leon

Last reported at 2015-Jul-31 22:23 UTC. Time now 2015-Aug-01 01:28 UTC.
Position N 51°53' E 004°18'.

Length 95 m; draft 4.8 m.

Type: Ship (hazmat cat C). MMSI: 636015519.

Date/timePositionNaut miles runAvg speedWind from/ knotsBaromVisibWave heightAir tempDewpointWater temp
2015-Jul-31 22:23N 51°53' E 004°18'0 0.0
2015-Jul-31 21:29N 51°53' E 004°18'0 0.0
2015-Jul-31 17:24N 51°53' E 004°18'2 3.0
2015-Jul-31 16:33N 51°55' E 004°15'10 9.6
2015-Jul-31 15:33N 51°59' E 004°02'10 9.5
2015-Jul-31 14:32N 52°04' E 003°48'37 8.8
2015-Jul-31 10:17N 52°41' E 003°55'5910.0
2015-Jul-31 04:24N 53°31' E 004°46'9 9.1
2015-Jul-31 03:27N 53°34' E 004°60'910.1
2015-Jul-31 02:34N 53°37' E 005°14'1110.9
2015-Jul-31 01:34N 53°41' E 005°31'1110.9
2015-Jul-31 00:34N 53°45' E 005°49'53 8.5
2015-Jul-30 18:17N 53°59' E 007°16'4 4.9
2015-Jul-30 17:34N 53°60' E 007°22'8 7.6
2015-Jul-30 16:33N 54°01' E 007°35'8 8.0
2015-Jul-30 15:33N 54°03' E 007°48'6 6.0
2015-Jul-30 14:33N 54°07' E 007°40'7 6.5
2015-Jul-30 13:33N 54°11' E 007°31'6 5.8
2015-Jul-30 12:33N 54°16' E 007°26'4 3.8
2015-Jul-30 11:33N 54°13' E 007°31'4 3.5
2015-Jul-30 10:33N 54°11' E 007°36'3 3.0
2015-Jul-30 09:33N 54°10' E 007°41'3 2.5
2015-Jul-30 08:32N 54°09' E 007°45'2 2.2
2015-Jul-30 07:32N 54°08' E 007°48'2 2.0
2015-Jul-30 06:28N 54°07' E 007°52'1 1.5
2015-Jul-30 05:31N 54°07' E 007°54'2 2.4
2015-Jul-30 04:33N 54°06' E 007°58'3 3.0
2015-Jul-30 03:34N 54°04' E 008°02'3 3.0
2015-Jul-30 02:33N 54°03' E 008°07'2 1.8
2015-Jul-30 01:31N 54°03' E 008°10'0 0.2
2015-Jul-30 00:28N 54°03' E 008°09'0 0.1
2015-Jul-29 23:31N 54°03' E 008°09'0 0.2
2015-Jul-29 22:31N 54°03' E 008°09'0 0.2
2015-Jul-29 21:31N 54°03' E 008°09'0 0.2
2015-Jul-29 20:28N 54°03' E 008°08'0 0.4
2015-Jul-29 19:28N 54°03' E 008°08'1 0.7
2015-Jul-29 18:31N 54°02' E 008°08'1 0.7
2015-Jul-29 17:31N 54°02' E 008°09'1 0.4
2015-Jul-29 16:13N 54°02' E 008°08'0 0.1
2015-Jul-29 15:22N 54°02' E 008°08'0 0.0
2015-Jul-29 14:31N 54°02' E 008°08'0 0.0
2015-Jul-29 13:25N 54°02' E 008°08'0 0.0
2015-Jul-29 12:28N 54°02' E 008°08'0 0.0
2015-Jul-29 11:25N 54°02' E 008°08'0 0.0
2015-Jul-29 10:25N 54°02' E 008°08'0 0.0
2015-Jul-29 09:07N 54°02' E 008°08'0 0.0
2015-Jul-29 08:25N 54°02' E 008°08'0 0.0
2015-Jul-29 07:25N 54°02' E 008°08'0 0.0
2015-Jul-29 06:25N 54°02' E 008°08'0 0.0
2015-Jul-29 05:31N 54°02' E 008°08'0 0.0
2015-Jul-29 04:31N 54°02' E 008°08'0 0.0
2015-Jul-29 03:31N 54°02' E 008°08'0 0.0
2015-Jul-29 02:31N 54°02' E 008°08'0 0.0
2015-Jul-29 01:19N 54°02' E 008°08'0 0.0
2015-Jul-29 00:31N 54°02' E 008°08'0 0.0
2015-Jul-28 23:31N 54°02' E 008°08'0 0.0
2015-Jul-28 22:22N 54°02' E 008°08'0 0.0
2015-Jul-28 21:28N 54°02' E 008°08'0 0.0
2015-Jul-28 20:22N 54°02' E 008°08'0 0.6
2015-Jul-28 19:33N 54°02' E 008°09'0 0.0
2015-Jul-28 18:33N 54°02' E 008°09'0 0.3
2015-Jul-28 17:33N 54°02' E 008°09'0 0.1
2015-Jul-28 16:33N 54°02' E 008°09'0 0.0
2015-Jul-28 15:33N 54°02' E 008°08'0 0.1
2015-Jul-28 14:34N 54°02' E 008°08'0 0.3
2015-Jul-28 13:28N 54°02' E 008°09'0 0.0
2015-Jul-28 12:25N 54°02' E 008°09'0 0.0
2015-Jul-28 11:28N 54°02' E 008°09'0 0.0
2015-Jul-28 10:28N 54°02' E 008°09'0 0.0
2015-Jul-28 09:31N 54°02' E 008°09'0 0.0
2015-Jul-28 08:25N 54°02' E 008°09'0 0.0
2015-Jul-28 07:25N 54°02' E 008°09'0 0.0
2015-Jul-28 06:28N 54°02' E 008°09'0 0.0
2015-Jul-28 05:31N 54°02' E 008°09'0 0.0
2015-Jul-28 04:28N 54°02' E 008°09'0 0.0
2015-Jul-28 03:31N 54°02' E 008°09'0 0.0
2015-Jul-28 02:31N 54°02' E 008°09'0 0.0
2015-Jul-28 01:25N 54°02' E 008°09'0 0.0
2015-Jul-28 00:31N 54°02' E 008°09'0 0.0
2015-Jul-27 23:28N 54°02' E 008°09'0 0.0
2015-Jul-27 22:31N 54°02' E 008°09'0 0.0
2015-Jul-27 21:31N 54°02' E 008°09'0 0.0
2015-Jul-27 20:31N 54°02' E 008°09'0 0.0
2015-Jul-27 19:25N 54°02' E 008°09'0 0.0
2015-Jul-27 18:31N 54°02' E 008°09'0 0.0
2015-Jul-27 17:31N 54°02' E 008°09'0 0.0
2015-Jul-27 16:31N 54°02' E 008°09'0 0.0
2015-Jul-27 15:31N 54°02' E 008°09'0 0.0
2015-Jul-27 14:28N 54°02' E 008°09'0 0.1
2015-Jul-27 13:31N 54°02' E 008°09'0 0.0
2015-Jul-27 12:22N 54°02' E 008°09'0 0.0
2015-Jul-27 11:31N 54°02' E 008°09'0 0.0
2015-Jul-27 10:31N 54°02' E 008°09'0 0.0
2015-Jul-27 09:31N 54°02' E 008°09'0 0.0
2015-Jul-27 08:31N 54°02' E 008°09'0 0.0
2015-Jul-27 07:31N 54°02' E 008°09'0 0.0
2015-Jul-27 06:31N 54°02' E 008°09'0 0.0
2015-Jul-27 05:28N 54°02' E 008°09'0 0.0
2015-Jul-27 04:31N 54°02' E 008°09'0 0.0
2015-Jul-27 03:31N 54°02' E 008°09'0 0.0
2015-Jul-27 02:28N 54°02' E 008°09'0 0.0
2015-Jul-27 01:31N 54°02' E 008°09'0 0.0
2015-Jul-27 00:31N 54°02' E 008°09'0 0.0
2015-Jul-26 23:31N 54°02' E 008°09'0 0.0
2015-Jul-26 22:28N 54°02' E 008°09'0 0.0
2015-Jul-26 21:28N 54°02' E 008°09'0 0.0
2015-Jul-26 20:28N 54°02' E 008°09'0 0.1
2015-Jul-26 19:31N 54°02' E 008°09'0 0.1
2015-Jul-26 18:31N 54°02' E 008°09'0 0.1
2015-Jul-26 17:22N 54°02' E 008°09'0 0.0
2015-Jul-26 16:25N 54°02' E 008°09'0 0.0
2015-Jul-26 15:25N 54°02' E 008°09'0 0.0
2015-Jul-26 14:31N 54°02' E 008°09'0 0.0
2015-Jul-26 13:28N 54°02' E 008°09'0 0.0
2015-Jul-26 12:31N 54°02' E 008°09'0 0.0
2015-Jul-26 11:22N 54°02' E 008°09'0 0.0
2015-Jul-26 10:28N 54°02' E 008°09'0 0.1
2015-Jul-26 09:19N 54°02' E 008°09'0 0.0
2015-Jul-26 08:17N 54°02' E 008°09'0 0.0
2015-Jul-26 07:19N 54°02' E 008°09'0 0.0
2015-Jul-26 06:19N 54°02' E 008°09'0 0.0
2015-Jul-26 05:31N 54°02' E 008°09'0 0.0
2015-Jul-26 04:31N 54°02' E 008°09'0 0.0
2015-Jul-26 03:31N 54°02' E 008°09'0 0.0
2015-Jul-26 02:31N 54°02' E 008°09'0 0.0
2015-Jul-26 01:22N 54°02' E 008°09'0 0.0
2015-Jul-26 00:28N 54°02' E 008°09'0 0.0
2015-Jul-25 23:31N 54°02' E 008°09'0 0.0
2015-Jul-25 22:31N 54°02' E 008°09'0 0.0
2015-Jul-25 21:31N 54°02' E 008°09'0 0.0
2015-Jul-25 20:31N 54°02' E 008°09'0 0.0
2015-Jul-25 19:31N 54°02' E 008°09'0 0.0
2015-Jul-25 18:31N 54°02' E 008°09'0 0.1
2015-Jul-25 17:19N 54°02' E 008°09'0 0.0
2015-Jul-25 16:25N 54°02' E 008°09'0 0.0
2015-Jul-25 15:25N 54°02' E 008°09'0 0.1
2015-Jul-25 14:28N 54°02' E 008°09'0 0.0
2015-Jul-25 13:28N 54°02' E 008°09'0 0.0
2015-Jul-25 12:31N 54°02' E 008°09'0 0.1
2015-Jul-25 11:28N 54°02' E 008°08'0 0.0
2015-Jul-25 10:28N 54°02' E 008°08'0 0.0
2015-Jul-25 09:31N 54°02' E 008°08'0 0.0
2015-Jul-25 08:31N 54°02' E 008°08'0 0.0
2015-Jul-25 07:28N 54°02' E 008°08'0 0.0
2015-Jul-25 06:25N 54°02' E 008°08'0 0.0
2015-Jul-25 05:28N 54°02' E 008°08'0 0.0
2015-Jul-25 04:31N 54°02' E 008°08'0 0.0
2015-Jul-25 03:31N 54°02' E 008°08'0 0.1
2015-Jul-25 02:31N 54°02' E 008°09'0 0.0
2015-Jul-25 01:31N 54°02' E 008°09'0 0.0
2015-Jul-25 00:31N 54°02' E 008°09'0 0.0
2015-Jul-24 23:31N 54°02' E 008°09'0 0.0
2015-Jul-24 22:31N 54°02' E 008°09'0 0.0
2015-Jul-24 21:31N 54°02' E 008°09'0 0.0
2015-Jul-24 20:19N 54°02' E 008°09'0 0.0
2015-Jul-24 19:28N 54°02' E 008°09'0 0.0
2015-Jul-24 18:28N 54°02' E 008°09'0 0.0
2015-Jul-24 17:31N 54°02' E 008°09'0 0.0
2015-Jul-24 16:31N 54°02' E 008°09'0 0.0
2015-Jul-24 15:19N 54°02' E 008°09'0 0.1
2015-Jul-24 14:19N 54°02' E 008°09'0 0.0
2015-Jul-24 13:31N 54°02' E 008°09'0 0.1
2015-Jul-24 12:31N 54°02' E 008°09'0 0.1
2015-Jul-24 11:17N 54°02' E 008°09'0 0.0
2015-Jul-24 10:28N 54°02' E 008°09'0 0.0
2015-Jul-24 09:31N 54°02' E 008°09'0 0.0
2015-Jul-24 08:31N 54°02' E 008°09'0 0.0
2015-Jul-24 07:31N 54°02' E 008°09'0 0.0
2015-Jul-24 06:31N 54°02' E 008°09'0 0.1
2015-Jul-24 05:31N 54°02' E 008°09'0 0.0
2015-Jul-24 04:28N 54°02' E 008°09'0 0.0
2015-Jul-24 03:31N 54°02' E 008°09'0 0.0
2015-Jul-24 02:31N 54°02' E 008°09'0 0.0
2015-Jul-24 01:28N 54°02' E 008°09'0 0.0
2015-Jul-24 00:28N 54°02' E 008°09'0 0.0
2015-Jul-23 23:31N 54°02' E 008°09'0 0.1
2015-Jul-23 22:31N 54°02' E 008°09'0 0.0
2015-Jul-23 21:31N 54°02' E 008°09'0 0.0
2015-Jul-23 20:28N 54°02' E 008°09'0 0.0
2015-Jul-23 19:28N 54°02' E 008°09'0 0.0
2015-Jul-23 18:31N 54°02' E 008°09'0 0.1
2015-Jul-23 17:31N 54°02' E 008°09'0 0.0
2015-Jul-23 16:31N 54°02' E 008°09'0 0.0
2015-Jul-23 15:25N 54°02' E 008°09'0 0.0
2015-Jul-23 14:31N 54°02' E 008°09'0 0.0
2015-Jul-23 13:31N 54°02' E 008°09'0 0.0
2015-Jul-23 12:28N 54°02' E 008°09'0 0.0
2015-Jul-23 11:25N 54°02' E 008°09'0 0.0
2015-Jul-23 10:31N 54°02' E 008°09'0 0.1
2015-Jul-23 09:28N 54°02' E 008°09'0 0.0
2015-Jul-23 08:19N 54°02' E 008°09'0 0.0
2015-Jul-23 07:19N 54°02' E 008°09'0 0.0
2015-Jul-23 06:31N 54°02' E 008°09'0 0.1
2015-Jul-23 05:31N 54°02' E 008°09'0 0.1
2015-Jul-23 04:28N 54°02' E 008°09'0 0.0
2015-Jul-23 03:28N 54°02' E 008°09'0 0.0
2015-Jul-23 02:31N 54°02' E 008°09'0 0.0
2015-Jul-23 01:31N 54°02' E 008°09'0 0.0
2015-Jul-23 00:31N 54°02' E 008°09'0 0.0
2015-Jul-22 23:31N 54°02' E 008°09'0 0.0
2015-Jul-22 22:25N 54°02' E 008°09'0 0.0
2015-Jul-22 21:31N 54°02' E 008°09'0 0.1
2015-Jul-22 20:28N 54°02' E 008°09'0 0.0
2015-Jul-22 19:28N 54°02' E 008°09'0 0.0
2015-Jul-22 18:31N 54°02' E 008°09'0 0.1
2015-Jul-22 17:28N 54°02' E 008°09'0 0.0
2015-Jul-22 16:31N 54°02' E 008°09'0 0.0
2015-Jul-22 15:22N 54°02' E 008°09'0 0.0
2015-Jul-22 14:31N 54°02' E 008°09'0 0.0
2015-Jul-22 13:31N 54°02' E 008°09'0 0.0
2015-Jul-22 12:22N 54°02' E 008°09'0 0.0
2015-Jul-22 11:28N 54°02' E 008°09'0 0.0
2015-Jul-22 10:13N 54°02' E 008°09'0 0.0
2015-Jul-22 09:31N 54°02' E 008°09'0 0.1
2015-Jul-22 08:31N 54°02' E 008°09'0 0.0
2015-Jul-22 07:25N 54°02' E 008°09'0 0.0
2015-Jul-22 06:31N 54°02' E 008°09'0 0.0
2015-Jul-22 05:31N 54°02' E 008°09'0 0.1
2015-Jul-22 04:31N 54°02' E 008°09'0 0.0
2015-Jul-22 03:31N 54°02' E 008°09'0 0.0
2015-Jul-22 02:31N 54°02' E 008°09'0 0.0
2015-Jul-22 01:31N 54°02' E 008°09'0 0.0
2015-Jul-22 00:31N 54°02' E 008°09'0 0.0
2015-Jul-21 23:31N 54°02' E 008°09'0 0.0
2015-Jul-21 22:28N 54°02' E 008°09'  

Dump ship's entire track history